sensor_id;sensor_type;location;lat;lon;timestamp;P1;durP1;ratioP1;P2;durP2;ratioP2
28353;SDS011;15603;50.878;8.036;2022-10-17T00:02:24;9.80;;;4.47;;
28353;SDS011;15603;50.878;8.036;2022-10-17T00:04:51;10.73;;;5.60;;
28353;SDS011;15603;50.878;8.036;2022-10-17T00:07:18;65.25;;;37.40;;
28353;SDS011;15603;50.878;8.036;2022-10-17T00:09:45;63.55;;;33.72;;
28353;SDS011;15603;50.878;8.036;2022-10-17T00:12:12;64.18;;;33.53;;
28353;SDS011;15603;50.878;8.036;2022-10-17T00:14:40;30.08;;;11.38;;
28353;SDS011;15603;50.878;8.036;2022-10-17T00:17:07;28.70;;;10.60;;
28353;SDS011;15603;50.878;8.036;2022-10-17T00:19:34;22.13;;;10.18;;
28353;SDS011;15603;50.878;8.036;2022-10-17T00:22:01;11.73;;;4.93;;
28353;SDS011;15603;50.878;8.036;2022-10-17T00:24:29;28.75;;;16.70;;
28353;SDS011;15603;50.878;8.036;2022-10-17T00:26:57;19.88;;;5.38;;
28353;SDS011;15603;50.878;8.036;2022-10-17T00:29:24;34.15;;;15.80;;
28353;SDS011;15603;50.878;8.036;2022-10-17T00:31:55;16.85;;;6.57;;
28353;SDS011;15603;50.878;8.036;2022-10-17T00:34:23;9.88;;;6.50;;
28353;SDS011;15603;50.878;8.036;2022-10-17T00:36:51;12.35;;;5.82;;
28353;SDS011;15603;50.878;8.036;2022-10-17T00:39:18;30.02;;;17.13;;
28353;SDS011;15603;50.878;8.036;2022-10-17T00:41:45;8.95;;;3.97;;
28353;SDS011;15603;50.878;8.036;2022-10-17T00:46:58;7.65;;;3.42;;
28353;SDS011;15603;50.878;8.036;2022-10-17T00:49:29;16.67;;;9.75;;
28353;SDS011;15603;50.878;8.036;2022-10-17T00:52:02;17.75;;;10.40;;
28353;SDS011;15603;50.878;8.036;2022-10-17T00:54:36;11.38;;;7.57;;
28353;SDS011;15603;50.878;8.036;2022-10-17T00:57:06;12.80;;;8.43;;
28353;SDS011;15603;50.878;8.036;2022-10-17T00:59:33;13.23;;;4.60;;
28353;SDS011;15603;50.878;8.036;2022-10-17T01:04:32;18.92;;;8.57;;
28353;SDS011;15603;50.878;8.036;2022-10-17T01:06:59;20.77;;;8.75;;
28353;SDS011;15603;50.878;8.036;2022-10-17T01:09:26;18.20;;;8.98;;
28353;SDS011;15603;50.878;8.036;2022-10-17T01:12:06;17.17;;;8.88;;
28353;SDS011;15603;50.878;8.036;2022-10-17T01:14:57;15.02;;;7.95;;
28353;SDS011;15603;50.878;8.036;2022-10-17T01:20:37;10.52;;;6.32;;
28353;SDS011;15603;50.878;8.036;2022-10-17T01:23:39;13.75;;;6.35;;
28353;SDS011;15603;50.878;8.036;2022-10-17T01:31:21;9.10;;;5.30;;
28353;SDS011;15603;50.878;8.036;2022-10-17T01:37:18;7.15;;;3.17;;
28353;SDS011;15603;50.878;8.036;2022-10-17T01:42:30;13.25;;;3.25;;
28353;SDS011;15603;50.878;8.036;2022-10-17T01:45:08;5.93;;;2.65;;
28353;SDS011;15603;50.878;8.036;2022-10-17T01:47:40;7.50;;;3.00;;
28353;SDS011;15603;50.878;8.036;2022-10-17T01:50:12;5.00;;;3.50;;
28353;SDS011;15603;50.878;8.036;2022-10-17T01:52:48;6.88;;;3.70;;
28353;SDS011;15603;50.878;8.036;2022-10-17T01:55:19;6.38;;;3.92;;
28353;SDS011;15603;50.878;8.036;2022-10-17T01:57:54;11.70;;;4.90;;
28353;SDS011;15603;50.878;8.036;2022-10-17T02:00:26;14.65;;;5.18;;
28353;SDS011;15603;50.878;8.036;2022-10-17T02:02:57;6.38;;;3.45;;
28353;SDS011;15603;50.878;8.036;2022-10-17T02:05:28;11.48;;;2.70;;
28353;SDS011;15603;50.878;8.036;2022-10-17T02:07:58;11.10;;;2.33;;
28353;SDS011;15603;50.878;8.036;2022-10-17T02:10:44;7.18;;;2.20;;
28353;SDS011;15603;50.878;8.036;2022-10-17T02:16:11;2.65;;;1.58;;
28353;SDS011;15603;50.878;8.036;2022-10-17T02:21:38;6.65;;;3.03;;
28353;SDS011;15603;50.878;8.036;2022-10-17T02:27:07;7.35;;;2.78;;
28353;SDS011;15603;50.878;8.036;2022-10-17T02:29:47;4.68;;;2.90;;
28353;SDS011;15603;50.878;8.036;2022-10-17T02:32:32;11.13;;;2.58;;
28353;SDS011;15603;50.878;8.036;2022-10-17T02:35:03;9.93;;;2.67;;
28353;SDS011;15603;50.878;8.036;2022-10-17T02:37:34;8.40;;;2.72;;
28353;SDS011;15603;50.878;8.036;2022-10-17T02:40:03;17.23;;;3.97;;
28353;SDS011;15603;50.878;8.036;2022-10-17T02:42:31;7.45;;;2.80;;
28353;SDS011;15603;50.878;8.036;2022-10-17T02:44:59;9.07;;;3.25;;
28353;SDS011;15603;50.878;8.036;2022-10-17T02:47:31;8.85;;;2.97;;
28353;SDS011;15603;50.878;8.036;2022-10-17T02:50:05;8.40;;;3.30;;
28353;SDS011;15603;50.878;8.036;2022-10-17T02:52:38;5.65;;;2.42;;
28353;SDS011;15603;50.878;8.036;2022-10-17T02:55:18;7.47;;;4.30;;
28353;SDS011;15603;50.878;8.036;2022-10-17T02:57:55;12.18;;;4.07;;
28353;SDS011;15603;50.878;8.036;2022-10-17T03:00:25;26.67;;;5.85;;
28353;SDS011;15603;50.878;8.036;2022-10-17T03:02:55;14.40;;;5.60;;
28353;SDS011;15603;50.878;8.036;2022-10-17T03:05:23;9.02;;;2.75;;
28353;SDS011;15603;50.878;8.036;2022-10-17T03:07:53;15.52;;;3.50;;
28353;SDS011;15603;50.878;8.036;2022-10-17T03:10:21;7.68;;;2.55;;
28353;SDS011;15603;50.878;8.036;2022-10-17T03:12:48;9.98;;;2.58;;
28353;SDS011;15603;50.878;8.036;2022-10-17T03:15:15;9.07;;;3.22;;
28353;SDS011;15603;50.878;8.036;2022-10-17T03:17:43;11.85;;;3.05;;
28353;SDS011;15603;50.878;8.036;2022-10-17T03:22:43;26.25;;;5.55;;
28353;SDS011;15603;50.878;8.036;2022-10-17T03:25:10;17.15;;;5.85;;
28353;SDS011;15603;50.878;8.036;2022-10-17T03:27:38;19.17;;;6.00;;
28353;SDS011;15603;50.878;8.036;2022-10-17T03:30:05;17.88;;;5.43;;
28353;SDS011;15603;50.878;8.036;2022-10-17T03:32:34;9.45;;;3.83;;
28353;SDS011;15603;50.878;8.036;2022-10-17T03:35:01;13.20;;;3.53;;
28353;SDS011;15603;50.878;8.036;2022-10-17T03:37:29;11.30;;;4.68;;
28353;SDS011;15603;50.878;8.036;2022-10-17T03:39:58;12.80;;;4.20;;
28353;SDS011;15603;50.878;8.036;2022-10-17T03:42:25;10.82;;;3.05;;
28353;SDS011;15603;50.878;8.036;2022-10-17T03:44:52;14.95;;;3.42;;
28353;SDS011;15603;50.878;8.036;2022-10-17T03:47:19;8.32;;;3.03;;
28353;SDS011;15603;50.878;8.036;2022-10-17T03:49:47;9.63;;;2.95;;
28353;SDS011;15603;50.878;8.036;2022-10-17T03:52:15;5.03;;;3.08;;
28353;SDS011;15603;50.878;8.036;2022-10-17T03:54:42;7.40;;;2.75;;
28353;SDS011;15603;50.878;8.036;2022-10-17T03:57:09;10.70;;;3.28;;
28353;SDS011;15603;50.878;8.036;2022-10-17T03:59:36;9.30;;;3.13;;
28353;SDS011;15603;50.878;8.036;2022-10-17T04:02:09;8.75;;;2.67;;
28353;SDS011;15603;50.878;8.036;2022-10-17T04:04:36;8.88;;;2.92;;
28353;SDS011;15603;50.878;8.036;2022-10-17T04:07:04;15.82;;;3.47;;
28353;SDS011;15603;50.878;8.036;2022-10-17T04:09:33;14.13;;;3.33;;
28353;SDS011;15603;50.878;8.036;2022-10-17T04:12:06;11.32;;;3.45;;
28353;SDS011;15603;50.878;8.036;2022-10-17T04:14:35;7.93;;;3.47;;
28353;SDS011;15603;50.878;8.036;2022-10-17T04:17:03;5.88;;;2.67;;
28353;SDS011;15603;50.878;8.036;2022-10-17T04:19:32;13.10;;;2.78;;
28353;SDS011;15603;50.878;8.036;2022-10-17T04:21:59;8.00;;;4.30;;
28353;SDS011;15603;50.878;8.036;2022-10-17T04:24:28;10.38;;;3.83;;
28353;SDS011;15603;50.878;8.036;2022-10-17T04:27:03;10.82;;;3.03;;
28353;SDS011;15603;50.878;8.036;2022-10-17T04:29:33;9.57;;;3.45;;
28353;SDS011;15603;50.878;8.036;2022-10-17T04:32:08;8.05;;;3.60;;
28353;SDS011;15603;50.878;8.036;2022-10-17T04:34:42;5.50;;;2.90;;
28353;SDS011;15603;50.878;8.036;2022-10-17T04:37:10;6.22;;;3.38;;
28353;SDS011;15603;50.878;8.036;2022-10-17T04:39:37;16.00;;;3.80;;
28353;SDS011;15603;50.878;8.036;2022-10-17T04:42:04;9.35;;;3.00;;
28353;SDS011;15603;50.878;8.036;2022-10-17T04:44:31;5.60;;;3.47;;
28353;SDS011;15603;50.878;8.036;2022-10-17T04:47:00;12.52;;;3.42;;
28353;SDS011;15603;50.878;8.036;2022-10-17T04:49:27;11.38;;;4.28;;
28353;SDS011;15603;50.878;8.036;2022-10-17T04:51:59;3.97;;;2.85;;
28353;SDS011;15603;50.878;8.036;2022-10-17T04:54:43;14.63;;;3.25;;
28353;SDS011;15603;50.878;8.036;2022-10-17T04:57:12;10.60;;;4.40;;
28353;SDS011;15603;50.878;8.036;2022-10-17T04:59:42;25.85;;;4.78;;
28353;SDS011;15603;50.878;8.036;2022-10-17T05:02:32;9.07;;;3.60;;
28353;SDS011;15603;50.878;8.036;2022-10-17T05:05:01;16.30;;;3.40;;
28353;SDS011;15603;50.878;8.036;2022-10-17T05:07:28;10.02;;;3.28;;
28353;SDS011;15603;50.878;8.036;2022-10-17T05:10:05;10.88;;;3.40;;
28353;SDS011;15603;50.878;8.036;2022-10-17T05:12:33;12.80;;;4.78;;
28353;SDS011;15603;50.878;8.036;2022-10-17T05:15:00;11.82;;;3.28;;
28353;SDS011;15603;50.878;8.036;2022-10-17T05:17:28;9.65;;;3.95;;
28353;SDS011;15603;50.878;8.036;2022-10-17T05:19:55;7.53;;;4.03;;
28353;SDS011;15603;50.878;8.036;2022-10-17T05:22:22;8.77;;;3.55;;
28353;SDS011;15603;50.878;8.036;2022-10-17T05:24:49;8.20;;;3.70;;
28353;SDS011;15603;50.878;8.036;2022-10-17T05:27:17;8.90;;;3.40;;
28353;SDS011;15603;50.878;8.036;2022-10-17T05:29:44;9.63;;;3.25;;
28353;SDS011;15603;50.878;8.036;2022-10-17T05:32:23;9.05;;;3.50;;
28353;SDS011;15603;50.878;8.036;2022-10-17T05:34:50;14.65;;;3.03;;
28353;SDS011;15603;50.878;8.036;2022-10-17T05:37:19;15.65;;;3.80;;
28353;SDS011;15603;50.878;8.036;2022-10-17T05:39:49;18.73;;;4.00;;
28353;SDS011;15603;50.878;8.036;2022-10-17T05:42:18;8.60;;;3.72;;
28353;SDS011;15603;50.878;8.036;2022-10-17T05:44:46;10.05;;;4.57;;
28353;SDS011;15603;50.878;8.036;2022-10-17T05:47:14;6.38;;;3.85;;
28353;SDS011;15603;50.878;8.036;2022-10-17T05:49:42;9.93;;;3.60;;
28353;SDS011;15603;50.878;8.036;2022-10-17T05:52:19;11.30;;;6.13;;
28353;SDS011;15603;50.878;8.036;2022-10-17T05:55:12;17.90;;;6.53;;
28353;SDS011;15603;50.878;8.036;2022-10-17T05:57:39;11.63;;;5.03;;
28353;SDS011;15603;50.878;8.036;2022-10-17T06:00:12;11.52;;;3.80;;
28353;SDS011;15603;50.878;8.036;2022-10-17T06:02:46;17.58;;;4.10;;
28353;SDS011;15603;50.878;8.036;2022-10-17T06:05:15;22.15;;;4.45;;
28353;SDS011;15603;50.878;8.036;2022-10-17T06:07:42;10.30;;;3.53;;
28353;SDS011;15603;50.878;8.036;2022-10-17T06:10:11;14.30;;;4.07;;
28353;SDS011;15603;50.878;8.036;2022-10-17T06:12:41;19.40;;;4.28;;
28353;SDS011;15603;50.878;8.036;2022-10-17T06:15:08;23.90;;;4.75;;
28353;SDS011;15603;50.878;8.036;2022-10-17T06:17:38;6.57;;;3.40;;
28353;SDS011;15603;50.878;8.036;2022-10-17T06:20:05;12.00;;;3.55;;
28353;SDS011;15603;50.878;8.036;2022-10-17T06:22:33;9.02;;;4.20;;
28353;SDS011;15603;50.878;8.036;2022-10-17T06:25:03;8.02;;;3.20;;
28353;SDS011;15603;50.878;8.036;2022-10-17T06:27:30;7.47;;;3.28;;
28353;SDS011;15603;50.878;8.036;2022-10-17T06:29:57;10.05;;;3.35;;
28353;SDS011;15603;50.878;8.036;2022-10-17T06:32:26;9.20;;;3.60;;
28353;SDS011;15603;50.878;8.036;2022-10-17T06:34:54;13.98;;;2.70;;
28353;SDS011;15603;50.878;8.036;2022-10-17T06:37:21;9.93;;;2.58;;
28353;SDS011;15603;50.878;8.036;2022-10-17T06:39:48;15.50;;;3.13;;
28353;SDS011;15603;50.878;8.036;2022-10-17T06:42:19;9.15;;;3.53;;
28353;SDS011;15603;50.878;8.036;2022-10-17T06:45:05;6.13;;;2.90;;
28353;SDS011;15603;50.878;8.036;2022-10-17T06:47:41;11.68;;;3.08;;
28353;SDS011;15603;50.878;8.036;2022-10-17T06:50:29;10.93;;;3.40;;
28353;SDS011;15603;50.878;8.036;2022-10-17T06:53:05;6.03;;;2.78;;
28353;SDS011;15603;50.878;8.036;2022-10-17T06:55:51;5.72;;;3.05;;
28353;SDS011;15603;50.878;8.036;2022-10-17T06:58:40;14.20;;;3.17;;
28353;SDS011;15603;50.878;8.036;2022-10-17T07:01:20;9.35;;;2.83;;
28353;SDS011;15603;50.878;8.036;2022-10-17T07:03:50;8.68;;;3.00;;
28353;SDS011;15603;50.878;8.036;2022-10-17T07:06:18;24.73;;;3.22;;
28353;SDS011;15603;50.878;8.036;2022-10-17T07:08:46;18.52;;;3.10;;
28353;SDS011;15603;50.878;8.036;2022-10-17T07:11:19;21.90;;;2.53;;
28353;SDS011;15603;50.878;8.036;2022-10-17T07:13:50;15.13;;;3.47;;
28353;SDS011;15603;50.878;8.036;2022-10-17T07:16:17;10.90;;;2.72;;
28353;SDS011;15603;50.878;8.036;2022-10-17T07:18:49;3.58;;;2.17;;
28353;SDS011;15603;50.878;8.036;2022-10-17T07:21:17;6.00;;;3.10;;
28353;SDS011;15603;50.878;8.036;2022-10-17T07:23:45;10.85;;;2.90;;
28353;SDS011;15603;50.878;8.036;2022-10-17T07:26:13;9.07;;;2.28;;
28353;SDS011;15603;50.878;8.036;2022-10-17T07:28:42;6.50;;;2.80;;
28353;SDS011;15603;50.878;8.036;2022-10-17T07:31:27;12.40;;;3.00;;
28353;SDS011;15603;50.878;8.036;2022-10-17T07:33:54;7.80;;;2.70;;
28353;SDS011;15603;50.878;8.036;2022-10-17T07:36:21;7.43;;;2.78;;
28353;SDS011;15603;50.878;8.036;2022-10-17T07:38:49;10.07;;;3.00;;
28353;SDS011;15603;50.878;8.036;2022-10-17T07:41:17;8.52;;;3.83;;
28353;SDS011;15603;50.878;8.036;2022-10-17T07:43:48;5.85;;;2.30;;
28353;SDS011;15603;50.878;8.036;2022-10-17T07:46:20;8.73;;;2.40;;
28353;SDS011;15603;50.878;8.036;2022-10-17T07:48:47;26.77;;;3.70;;
28353;SDS011;15603;50.878;8.036;2022-10-17T07:51:14;6.55;;;2.28;;
28353;SDS011;15603;50.878;8.036;2022-10-17T07:53:42;15.48;;;3.58;;
28353;SDS011;15603;50.878;8.036;2022-10-17T07:56:14;13.48;;;2.50;;
28353;SDS011;15603;50.878;8.036;2022-10-17T07:58:41;10.88;;;2.67;;
28353;SDS011;15603;50.878;8.036;2022-10-17T08:01:09;13.93;;;2.42;;
28353;SDS011;15603;50.878;8.036;2022-10-17T08:06:12;18.80;;;4.10;;
28353;SDS011;15603;50.878;8.036;2022-10-17T08:08:40;11.23;;;2.22;;
28353;SDS011;15603;50.878;8.036;2022-10-17T08:11:08;10.30;;;2.08;;
28353;SDS011;15603;50.878;8.036;2022-10-17T08:13:37;13.77;;;2.03;;
28353;SDS011;15603;50.878;8.036;2022-10-17T08:16:06;6.22;;;2.97;;
28353;SDS011;15603;50.878;8.036;2022-10-17T08:18:35;11.90;;;2.70;;
28353;SDS011;15603;50.878;8.036;2022-10-17T08:21:03;9.32;;;1.95;;
28353;SDS011;15603;50.878;8.036;2022-10-17T08:23:34;4.95;;;1.90;;
28353;SDS011;15603;50.878;8.036;2022-10-17T08:26:03;11.88;;;2.40;;
28353;SDS011;15603;50.878;8.036;2022-10-17T08:28:33;9.55;;;2.08;;
28353;SDS011;15603;50.878;8.036;2022-10-17T08:31:04;11.02;;;2.17;;
28353;SDS011;15603;50.878;8.036;2022-10-17T08:33:33;6.68;;;2.33;;
28353;SDS011;15603;50.878;8.036;2022-10-17T08:36:00;8.73;;;2.17;;
28353;SDS011;15603;50.878;8.036;2022-10-17T08:38:28;10.82;;;2.20;;
28353;SDS011;15603;50.878;8.036;2022-10-17T08:43:50;10.82;;;2.15;;
28353;SDS011;15603;50.878;8.036;2022-10-17T08:46:22;5.72;;;2.00;;
28353;SDS011;15603;50.878;8.036;2022-10-17T08:48:55;12.10;;;2.35;;
28353;SDS011;15603;50.878;8.036;2022-10-17T08:51:30;8.13;;;2.92;;
28353;SDS011;15603;50.878;8.036;2022-10-17T08:54:05;7.63;;;2.20;;
28353;SDS011;15603;50.878;8.036;2022-10-17T08:56:44;12.43;;;2.28;;
28353;SDS011;15603;50.878;8.036;2022-10-17T08:59:17;9.75;;;1.90;;
28353;SDS011;15603;50.878;8.036;2022-10-17T09:01:52;5.43;;;1.92;;
28353;SDS011;15603;50.878;8.036;2022-10-17T09:07:04;12.98;;;1.17;;
28353;SDS011;15603;50.878;8.036;2022-10-17T09:16:09;5.30;;;2.22;;
28353;SDS011;15603;50.878;8.036;2022-10-17T09:19:00;7.45;;;2.38;;
28353;SDS011;15603;50.878;8.036;2022-10-17T09:21:45;11.45;;;2.13;;
28353;SDS011;15603;50.878;8.036;2022-10-17T09:24:21;9.48;;;2.15;;
28353;SDS011;15603;50.878;8.036;2022-10-17T09:27:04;20.65;;;4.38;;
28353;SDS011;15603;50.878;8.036;2022-10-17T09:29:38;5.60;;;1.83;;
28353;SDS011;15603;50.878;8.036;2022-10-17T09:32:11;8.30;;;1.98;;
28353;SDS011;15603;50.878;8.036;2022-10-17T09:34:42;11.38;;;2.10;;
28353;SDS011;15603;50.878;8.036;2022-10-17T09:37:11;7.57;;;1.90;;
28353;SDS011;15603;50.878;8.036;2022-10-17T09:39:40;4.97;;;1.85;;
28353;SDS011;15603;50.878;8.036;2022-10-17T09:42:09;3.38;;;1.33;;
28353;SDS011;15603;50.878;8.036;2022-10-17T09:44:41;7.75;;;2.22;;
28353;SDS011;15603;50.878;8.036;2022-10-17T09:47:24;4.90;;;1.60;;
28353;SDS011;15603;50.878;8.036;2022-10-17T09:49:56;5.53;;;1.58;;
28353;SDS011;15603;50.878;8.036;2022-10-17T09:52:34;8.38;;;1.70;;
28353;SDS011;15603;50.878;8.036;2022-10-17T09:55:16;17.33;;;1.92;;
28353;SDS011;15603;50.878;8.036;2022-10-17T09:57:51;10.55;;;2.00;;
28353;SDS011;15603;50.878;8.036;2022-10-17T10:00:22;5.57;;;1.75;;
28353;SDS011;15603;50.878;8.036;2022-10-17T10:03:07;5.65;;;1.63;;
28353;SDS011;15603;50.878;8.036;2022-10-17T10:05:40;15.90;;;2.83;;
28353;SDS011;15603;50.878;8.036;2022-10-17T10:08:15;10.73;;;1.70;;
28353;SDS011;15603;50.878;8.036;2022-10-17T10:10:44;8.57;;;2.70;;
28353;SDS011;15603;50.878;8.036;2022-10-17T10:15:39;9.57;;;2.03;;
28353;SDS011;15603;50.878;8.036;2022-10-17T10:21:25;11.35;;;2.17;;
28353;SDS011;15603;50.878;8.036;2022-10-17T10:26:36;4.45;;;1.70;;
28353;SDS011;15603;50.878;8.036;2022-10-17T10:29:52;6.80;;;1.77;;
28353;SDS011;15603;50.878;8.036;2022-10-17T10:32:20;8.50;;;2.13;;
28353;SDS011;15603;50.878;8.036;2022-10-17T10:35:06;12.13;;;2.35;;
28353;SDS011;15603;50.878;8.036;2022-10-17T10:40:15;4.18;;;1.80;;
28353;SDS011;15603;50.878;8.036;2022-10-17T10:42:46;7.50;;;1.63;;
28353;SDS011;15603;50.878;8.036;2022-10-17T10:48:02;8.45;;;2.13;;
28353;SDS011;15603;50.878;8.036;2022-10-17T10:50:42;7.55;;;1.80;;
28353;SDS011;15603;50.878;8.036;2022-10-17T11:01:36;4.95;;;1.80;;
28353;SDS011;15603;50.878;8.036;2022-10-17T11:06:57;13.75;;;5.03;;
28353;SDS011;15603;50.878;8.036;2022-10-17T11:09:43;4.40;;;1.48;;
28353;SDS011;15603;50.878;8.036;2022-10-17T11:12:22;5.10;;;1.73;;
28353;SDS011;15603;50.878;8.036;2022-10-17T11:14:58;5.35;;;1.58;;
28353;SDS011;15603;50.878;8.036;2022-10-17T11:17:33;14.38;;;2.05;;
28353;SDS011;15603;50.878;8.036;2022-10-17T11:20:10;5.05;;;1.45;;
28353;SDS011;15603;50.878;8.036;2022-10-17T11:22:44;3.42;;;1.35;;
28353;SDS011;15603;50.878;8.036;2022-10-17T11:28:01;10.98;;;2.47;;
28353;SDS011;15603;50.878;8.036;2022-10-17T11:31:17;9.98;;;1.33;;
28353;SDS011;15603;50.878;8.036;2022-10-17T11:36:06;3.90;;;1.27;;
28353;SDS011;15603;50.878;8.036;2022-10-17T11:38:52;6.25;;;1.73;;
28353;SDS011;15603;50.878;8.036;2022-10-17T11:41:26;10.98;;;1.50;;
28353;SDS011;15603;50.878;8.036;2022-10-17T11:44:12;14.27;;;2.00;;
28353;SDS011;15603;50.878;8.036;2022-10-17T11:46:40;6.07;;;1.48;;
28353;SDS011;15603;50.878;8.036;2022-10-17T11:49:10;3.47;;;1.65;;
28353;SDS011;15603;50.878;8.036;2022-10-17T11:51:50;11.68;;;2.00;;
28353;SDS011;15603;50.878;8.036;2022-10-17T11:55:10;11.30;;;1.95;;
28353;SDS011;15603;50.878;8.036;2022-10-17T12:00:21;5.47;;;1.23;;
28353;SDS011;15603;50.878;8.036;2022-10-17T12:06:07;5.55;;;1.65;;
28353;SDS011;15603;50.878;8.036;2022-10-17T12:08:57;10.75;;;2.45;;
28353;SDS011;15603;50.878;8.036;2022-10-17T12:11:41;18.35;;;1.95;;
28353;SDS011;15603;50.878;8.036;2022-10-17T12:14:41;4.40;;;1.45;;
28353;SDS011;15603;50.878;8.036;2022-10-17T12:19:48;10.10;;;2.90;;
28353;SDS011;15603;50.878;8.036;2022-10-17T12:22:23;19.80;;;1.83;;
28353;SDS011;15603;50.878;8.036;2022-10-17T12:24:55;8.00;;;1.77;;
28353;SDS011;15603;50.878;8.036;2022-10-17T12:35:37;8.55;;;1.48;;
28353;SDS011;15603;50.878;8.036;2022-10-17T12:38:18;9.15;;;1.80;;
28353;SDS011;15603;50.878;8.036;2022-10-17T12:40:54;6.80;;;1.83;;
28353;SDS011;15603;50.878;8.036;2022-10-17T12:46:02;13.18;;;1.67;;
28353;SDS011;15603;50.878;8.036;2022-10-17T12:51:08;9.50;;;1.70;;
28353;SDS011;15603;50.878;8.036;2022-10-17T12:54:13;4.20;;;1.35;;
28353;SDS011;15603;50.878;8.036;2022-10-17T12:56:45;7.40;;;1.63;;
28353;SDS011;15603;50.878;8.036;2022-10-17T12:59:23;14.35;;;2.05;;
28353;SDS011;15603;50.878;8.036;2022-10-17T13:01:52;9.18;;;2.13;;
28353;SDS011;15603;50.878;8.036;2022-10-17T13:04:23;7.60;;;1.23;;
28353;SDS011;15603;50.878;8.036;2022-10-17T13:06:52;4.75;;;1.30;;
28353;SDS011;15603;50.878;8.036;2022-10-17T13:09:26;9.63;;;1.88;;
28353;SDS011;15603;50.878;8.036;2022-10-17T13:12:00;3.88;;;1.42;;
28353;SDS011;15603;50.878;8.036;2022-10-17T13:14:30;4.80;;;1.65;;
28353;SDS011;15603;50.878;8.036;2022-10-17T13:17:00;7.70;;;2.20;;
28353;SDS011;15603;50.878;8.036;2022-10-17T13:19:30;7.35;;;1.90;;
28353;SDS011;15603;50.878;8.036;2022-10-17T13:22:10;7.82;;;1.38;;
28353;SDS011;15603;50.878;8.036;2022-10-17T13:24:47;15.05;;;1.73;;
28353;SDS011;15603;50.878;8.036;2022-10-17T13:27:23;5.80;;;1.85;;
28353;SDS011;15603;50.878;8.036;2022-10-17T13:29:51;5.03;;;1.42;;
28353;SDS011;15603;50.878;8.036;2022-10-17T13:32:18;8.45;;;1.60;;
28353;SDS011;15603;50.878;8.036;2022-10-17T13:34:45;13.55;;;2.08;;
28353;SDS011;15603;50.878;8.036;2022-10-17T13:37:12;10.77;;;2.05;;
28353;SDS011;15603;50.878;8.036;2022-10-17T13:39:42;2.78;;;1.25;;
28353;SDS011;15603;50.878;8.036;2022-10-17T13:42:22;15.70;;;2.85;;
28353;SDS011;15603;50.878;8.036;2022-10-17T13:44:56;10.57;;;1.70;;
28353;SDS011;15603;50.878;8.036;2022-10-17T13:47:25;7.45;;;1.77;;
28353;SDS011;15603;50.878;8.036;2022-10-17T13:49:55;5.57;;;1.58;;
28353;SDS011;15603;50.878;8.036;2022-10-17T13:52:23;4.80;;;1.23;;
28353;SDS011;15603;50.878;8.036;2022-10-17T13:54:54;19.92;;;1.95;;
28353;SDS011;15603;50.878;8.036;2022-10-17T13:57:31;7.60;;;1.95;;
28353;SDS011;15603;50.878;8.036;2022-10-17T14:00:14;6.32;;;2.10;;
28353;SDS011;15603;50.878;8.036;2022-10-17T14:02:45;8.10;;;1.42;;
28353;SDS011;15603;50.878;8.036;2022-10-17T14:05:14;5.85;;;1.60;;
28353;SDS011;15603;50.878;8.036;2022-10-17T14:10:37;9.40;;;1.70;;
28353;SDS011;15603;50.878;8.036;2022-10-17T14:13:06;7.45;;;1.55;;
28353;SDS011;15603;50.878;8.036;2022-10-17T14:15:43;7.63;;;2.00;;
28353;SDS011;15603;50.878;8.036;2022-10-17T14:18:22;9.00;;;1.98;;
28353;SDS011;15603;50.878;8.036;2022-10-17T14:20:52;12.57;;;1.42;;
28353;SDS011;15603;50.878;8.036;2022-10-17T14:23:40;6.72;;;1.75;;
28353;SDS011;15603;50.878;8.036;2022-10-17T14:26:16;4.93;;;1.30;;
28353;SDS011;15603;50.878;8.036;2022-10-17T14:28:48;8.15;;;2.10;;
28353;SDS011;15603;50.878;8.036;2022-10-17T14:31:31;3.65;;;1.80;;
28353;SDS011;15603;50.878;8.036;2022-10-17T14:34:00;11.63;;;2.83;;
28353;SDS011;15603;50.878;8.036;2022-10-17T14:36:37;11.07;;;2.40;;
28353;SDS011;15603;50.878;8.036;2022-10-17T14:39:15;9.65;;;1.90;;
28353;SDS011;15603;50.878;8.036;2022-10-17T14:41:46;21.85;;;8.70;;
28353;SDS011;15603;50.878;8.036;2022-10-17T14:44:24;9.25;;;1.58;;
28353;SDS011;15603;50.878;8.036;2022-10-17T14:46:58;12.55;;;1.92;;
28353;SDS011;15603;50.878;8.036;2022-10-17T14:49:49;5.20;;;1.50;;
28353;SDS011;15603;50.878;8.036;2022-10-17T14:54:45;3.78;;;1.50;;
28353;SDS011;15603;50.878;8.036;2022-10-17T14:57:18;7.00;;;1.85;;
28353;SDS011;15603;50.878;8.036;2022-10-17T14:59:49;11.05;;;2.00;;
28353;SDS011;15603;50.878;8.036;2022-10-17T15:02:25;3.93;;;1.50;;
28353;SDS011;15603;50.878;8.036;2022-10-17T15:04:56;8.18;;;1.92;;
28353;SDS011;15603;50.878;8.036;2022-10-17T15:07:23;12.70;;;2.47;;
28353;SDS011;15603;50.878;8.036;2022-10-17T15:09:51;6.43;;;1.95;;
28353;SDS011;15603;50.878;8.036;2022-10-17T15:12:20;11.40;;;2.17;;
28353;SDS011;15603;50.878;8.036;2022-10-17T15:14:50;8.88;;;1.80;;
28353;SDS011;15603;50.878;8.036;2022-10-17T15:17:19;9.75;;;1.60;;
28353;SDS011;15603;50.878;8.036;2022-10-17T15:19:50;8.18;;;2.13;;
28353;SDS011;15603;50.878;8.036;2022-10-17T15:22:17;16.60;;;3.05;;
28353;SDS011;15603;50.878;8.036;2022-10-17T15:24:44;13.10;;;1.63;;
28353;SDS011;15603;50.878;8.036;2022-10-17T15:27:13;7.65;;;2.30;;
28353;SDS011;15603;50.878;8.036;2022-10-17T15:29:42;11.38;;;1.95;;
28353;SDS011;15603;50.878;8.036;2022-10-17T15:32:10;6.75;;;1.40;;
28353;SDS011;15603;50.878;8.036;2022-10-17T15:34:37;7.78;;;2.28;;
28353;SDS011;15603;50.878;8.036;2022-10-17T15:37:05;12.48;;;2.28;;
28353;SDS011;15603;50.878;8.036;2022-10-17T15:39:33;5.88;;;1.85;;
28353;SDS011;15603;50.878;8.036;2022-10-17T15:42:00;2.55;;;1.58;;
28353;SDS011;15603;50.878;8.036;2022-10-17T15:44:27;6.28;;;1.60;;
28353;SDS011;15603;50.878;8.036;2022-10-17T15:46:54;11.43;;;2.53;;
28353;SDS011;15603;50.878;8.036;2022-10-17T15:49:22;11.70;;;2.05;;
28353;SDS011;15603;50.878;8.036;2022-10-17T15:51:49;9.70;;;2.20;;
28353;SDS011;15603;50.878;8.036;2022-10-17T15:54:21;12.47;;;2.53;;
28353;SDS011;15603;50.878;8.036;2022-10-17T15:56:50;5.95;;;1.35;;
28353;SDS011;15603;50.878;8.036;2022-10-17T15:59:22;12.95;;;2.55;;
28353;SDS011;15603;50.878;8.036;2022-10-17T16:01:55;14.50;;;2.17;;
28353;SDS011;15603;50.878;8.036;2022-10-17T16:04:22;17.42;;;2.63;;
28353;SDS011;15603;50.878;8.036;2022-10-17T16:06:52;7.00;;;1.73;;
28353;SDS011;15603;50.878;8.036;2022-10-17T16:09:19;9.07;;;2.20;;
28353;SDS011;15603;50.878;8.036;2022-10-17T16:11:46;10.38;;;2.17;;
28353;SDS011;15603;50.878;8.036;2022-10-17T16:14:14;12.45;;;1.95;;
28353;SDS011;15603;50.878;8.036;2022-10-17T16:16:43;10.82;;;1.85;;
28353;SDS011;15603;50.878;8.036;2022-10-17T16:19:10;8.05;;;1.80;;
28353;SDS011;15603;50.878;8.036;2022-10-17T16:21:38;17.38;;;2.40;;
28353;SDS011;15603;50.878;8.036;2022-10-17T16:24:10;6.75;;;2.15;;
28353;SDS011;15603;50.878;8.036;2022-10-17T16:26:38;10.45;;;2.50;;
28353;SDS011;15603;50.878;8.036;2022-10-17T16:29:06;6.65;;;1.98;;
28353;SDS011;15603;50.878;8.036;2022-10-17T16:31:34;11.55;;;2.00;;
28353;SDS011;15603;50.878;8.036;2022-10-17T16:34:02;13.90;;;2.20;;
28353;SDS011;15603;50.878;8.036;2022-10-17T16:36:32;16.25;;;2.22;;
28353;SDS011;15603;50.878;8.036;2022-10-17T16:38:59;17.98;;;2.92;;
28353;SDS011;15603;50.878;8.036;2022-10-17T16:41:27;11.90;;;2.53;;
28353;SDS011;15603;50.878;8.036;2022-10-17T16:43:57;10.98;;;2.55;;
28353;SDS011;15603;50.878;8.036;2022-10-17T16:46:26;9.98;;;2.08;;
28353;SDS011;15603;50.878;8.036;2022-10-17T16:48:57;4.43;;;2.22;;
28353;SDS011;15603;50.878;8.036;2022-10-17T16:51:24;13.68;;;2.80;;
28353;SDS011;15603;50.878;8.036;2022-10-17T16:53:51;10.60;;;3.53;;